sensor_id;sensor_type;location;lat;lon;timestamp;P1;durP1;ratioP1;P2;durP2;ratioP2
3175;SDS011;1599;51.564;6.990;2023-04-15T08:09:07;8.10;;;5.30;;
3175;SDS011;1599;51.564;6.990;2023-04-15T08:33:53;11.37;;;6.10;;
3175;SDS011;1599;51.564;6.990;2023-04-15T08:36:21;9.80;;;5.73;;
3175;SDS011;1599;51.564;6.990;2023-04-15T08:38:47;8.23;;;5.60;;
3175;SDS011;1599;51.564;6.990;2023-04-15T08:41:23;9.73;;;6.50;;
3175;SDS011;1599;51.564;6.990;2023-04-15T08:43:57;8.47;;;6.10;;
3175;SDS011;1599;51.564;6.990;2023-04-15T08:46:25;9.60;;;5.90;;
3175;SDS011;1599;51.564;6.990;2023-04-15T08:48:51;9.80;;;6.57;;
3175;SDS011;1599;51.564;6.990;2023-04-15T08:51:20;9.90;;;6.20;;
3175;SDS011;1599;51.564;6.990;2023-04-15T08:53:46;12.50;;;7.57;;
3175;SDS011;1599;51.564;6.990;2023-04-15T08:56:13;9.63;;;6.93;;
3175;SDS011;1599;51.564;6.990;2023-04-15T08:58:40;10.67;;;7.10;;
3175;SDS011;1599;51.564;6.990;2023-04-15T09:01:07;9.07;;;6.97;;
3175;SDS011;1599;51.564;6.990;2023-04-15T09:03:33;9.63;;;7.17;;
3175;SDS011;1599;51.564;6.990;2023-04-15T09:05:59;13.00;;;7.83;;
3175;SDS011;1599;51.564;6.990;2023-04-15T09:08:25;11.67;;;7.00;;
3175;SDS011;1599;51.564;6.990;2023-04-15T09:10:52;9.77;;;6.17;;
3175;SDS011;1599;51.564;6.990;2023-04-15T09:13:18;6.97;;;5.10;;
3175;SDS011;1599;51.564;6.990;2023-04-15T09:15:44;8.87;;;5.60;;
3175;SDS011;1599;51.564;6.990;2023-04-15T09:18:10;7.77;;;5.47;;
3175;SDS011;1599;51.564;6.990;2023-04-15T09:20:38;7.60;;;5.60;;
3175;SDS011;1599;51.564;6.990;2023-04-15T09:23:12;7.73;;;6.00;;
3175;SDS011;1599;51.564;6.990;2023-04-15T09:25:39;8.13;;;6.10;;
3175;SDS011;1599;51.564;6.990;2023-04-15T09:28:06;7.27;;;6.20;;
3175;SDS011;1599;51.564;6.990;2023-04-15T09:30:32;9.70;;;5.90;;
3175;SDS011;1599;51.564;6.990;2023-04-15T09:33:00;8.20;;;6.00;;
3175;SDS011;1599;51.564;6.990;2023-04-15T09:35:26;7.20;;;5.23;;
3175;SDS011;1599;51.564;6.990;2023-04-15T09:38:14;6.67;;;5.20;;
3175;SDS011;1599;51.564;6.990;2023-04-15T10:33:00;8.40;;;6.10;;
3175;SDS011;1599;51.564;6.990;2023-04-15T10:35:40;9.07;;;6.90;;
3175;SDS011;1599;51.564;6.990;2023-04-15T10:41:33;8.87;;;6.00;;
3175;SDS011;1599;51.564;6.990;2023-04-15T10:44:02;6.87;;;5.20;;
3175;SDS011;1599;51.564;6.990;2023-04-15T10:46:40;8.23;;;6.13;;
3175;SDS011;1599;51.564;6.990;2023-04-15T10:49:10;10.57;;;6.97;;
3175;SDS011;1599;51.564;6.990;2023-04-15T10:51:52;8.87;;;6.43;;
3175;SDS011;1599;51.564;6.990;2023-04-15T10:56:50;10.27;;;6.10;;
3175;SDS011;1599;51.564;6.990;2023-04-15T10:59:58;9.83;;;5.30;;
3175;SDS011;1599;51.564;6.990;2023-04-15T11:05:47;7.10;;;5.37;;
3175;SDS011;1599;51.564;6.990;2023-04-15T11:08:57;9.23;;;5.50;;
3175;SDS011;1599;51.564;6.990;2023-04-15T11:21:35;7.53;;;6.00;;
3175;SDS011;1599;51.564;6.990;2023-04-15T11:26:56;8.00;;;5.73;;
3175;SDS011;1599;51.564;6.990;2023-04-15T12:13:05;6.53;;;5.63;;
3175;SDS011;1599;51.564;6.990;2023-04-15T12:15:54;6.83;;;5.83;;
3175;SDS011;1599;51.564;6.990;2023-04-15T12:18:32;8.50;;;5.57;;
3175;SDS011;1599;51.564;6.990;2023-04-15T12:21:08;6.13;;;4.70;;
3175;SDS011;1599;51.564;6.990;2023-04-15T12:23:39;7.30;;;4.90;;
3175;SDS011;1599;51.564;6.990;2023-04-15T12:26:33;7.67;;;5.50;;
3175;SDS011;1599;51.564;6.990;2023-04-15T12:29:29;5.70;;;4.67;;
3175;SDS011;1599;51.564;6.990;2023-04-15T13:18:01;7.90;;;4.97;;
3175;SDS011;1599;51.564;6.990;2023-04-15T13:23:58;6.33;;;5.07;;
3175;SDS011;1599;51.564;6.990;2023-04-15T13:29:50;7.57;;;4.73;;
3175;SDS011;1599;51.564;6.990;2023-04-15T17:25:03;10.70;;;5.63;;
3175;SDS011;1599;51.564;6.990;2023-04-15T17:38:46;7.50;;;6.27;;
3175;SDS011;1599;51.564;6.990;2023-04-15T22:28:16;32.73;;;14.73;;
3175;SDS011;1599;51.564;6.990;2023-04-15T22:30:42;35.37;;;15.67;;
3175;SDS011;1599;51.564;6.990;2023-04-15T22:33:13;30.90;;;14.30;;
3175;SDS011;1599;51.564;6.990;2023-04-15T22:35:41;38.87;;;16.27;;
3175;SDS011;1599;51.564;6.990;2023-04-15T22:38:08;29.80;;;15.80;;
3175;SDS011;1599;51.564;6.990;2023-04-15T22:40:33;33.23;;;15.80;;
3175;SDS011;1599;51.564;6.990;2023-04-15T23:27:05;33.27;;;16.43;;
3175;SDS011;1599;51.564;6.990;2023-04-15T23:29:31;36.70;;;15.40;;
